createdAt,value
2018-09-03T00:00:01.371Z,16.98
2018-09-03T00:05:01.812Z,16.94
2018-09-03T00:10:01.155Z,16.92
2018-09-03T00:15:01.526Z,16.89
2018-09-03T00:20:01.960Z,16.86
2018-09-03T00:25:01.356Z,16.85
2018-09-03T00:30:01.746Z,16.74
2018-09-03T00:35:01.114Z,16.73
2018-09-03T00:40:01.488Z,16.64
2018-09-03T00:45:01.814Z,16.57
2018-09-03T00:50:02.126Z,16.52
2018-09-03T00:55:01.508Z,16.47
2018-09-03T01:00:01.917Z,16.43
2018-09-03T01:05:01.306Z,16.37
2018-09-03T01:10:01.778Z,16.33
2018-09-03T01:15:02.144Z,16.31
2018-09-03T01:20:01.938Z,16.28
2018-09-03T01:25:01.342Z,16.29
2018-09-03T01:30:01.656Z,16.27
2018-09-03T01:35:01.992Z,16.27
2018-09-03T01:40:01.410Z,16.28
2018-09-03T01:45:01.703Z,16.25
2018-09-03T01:50:02.043Z,16.2
2018-09-03T01:55:01.484Z,16.17
2018-09-03T02:00:01.737Z,16.15
2018-09-03T02:05:02.048Z,16.18
2018-09-03T02:10:01.503Z,16.19
2018-09-03T02:15:01.762Z,16.18
2018-09-03T02:20:01.108Z,16.17
2018-09-03T02:25:01.500Z,16.2
2018-09-03T02:30:01.924Z,16.18
2018-09-03T02:35:01.305Z,16.15
2018-09-03T02:40:01.790Z,16.15
2018-09-03T02:45:01.171Z,16.11
2018-09-03T02:50:01.432Z,16.06
2018-09-03T02:55:01.688Z,16.02
2018-09-03T03:00:01.905Z,15.97
2018-09-03T03:05:01.173Z,15.97
2018-09-03T03:10:01.415Z,15.91
2018-09-03T03:15:01.689Z,15.87
2018-09-03T03:20:02.115Z,15.86
2018-09-03T03:25:01.546Z,15.85
2018-09-03T03:30:01.940Z,15.75
2018-09-03T03:35:01.196Z,15.73
2018-09-03T03:40:01.506Z,15.68
2018-09-03T03:45:01.746Z,15.63
2018-09-03T03:50:01.978Z,15.6
2018-09-03T03:55:01.407Z,15.52
2018-09-03T04:00:01.913Z,15.48
2018-09-03T04:05:01.153Z,15.43
2018-09-03T04:10:01.441Z,15.4
2018-09-03T04:15:01.717Z,15.36
2018-09-03T04:20:02.094Z,15.33
2018-09-03T04:25:01.535Z,15.32
2018-09-03T04:30:01.942Z,15.3
2018-09-03T04:35:01.283Z,15.29
2018-09-03T04:40:01.220Z,15.26
2018-09-03T04:45:01.460Z,15.23
2018-09-03T04:50:01.796Z,15.21
2018-09-03T04:55:01.152Z,15.19
2018-09-03T05:00:01.481Z,15.22
2018-09-03T05:05:01.885Z,15.21
2018-09-03T05:10:01.248Z,15.25
2018-09-03T05:15:01.516Z,15.24
2018-09-03T05:20:01.915Z,15.26
2018-09-03T05:25:01.258Z,15.29
2018-09-03T05:30:01.575Z,15.29
2018-09-03T05:35:01.939Z,15.34
2018-09-03T05:40:01.381Z,15.36
2018-09-03T05:45:01.623Z,15.41
2018-09-03T05:50:02.024Z,15.48
2018-09-03T05:55:01.519Z,15.52
2018-09-03T06:00:01.778Z,15.55
2018-09-03T06:05:02.126Z,15.63
2018-09-03T06:10:01.544Z,15.7
2018-09-03T06:15:01.793Z,15.78
2018-09-03T06:20:02.131Z,15.9
2018-09-03T06:25:01.555Z,16.01
2018-09-03T06:30:01.787Z,16.08
2018-09-03T06:35:02.162Z,16.22
2018-09-03T06:40:01.576Z,16.32
2018-09-03T06:45:01.814Z,16.44
2018-09-03T06:50:02.161Z,16.5
2018-09-03T06:55:01.605Z,16.54
2018-09-03T07:00:01.848Z,16.65
2018-09-03T07:05:01.138Z,16.74
2018-09-03T07:10:01.384Z,16.82
2018-09-03T07:15:01.631Z,16.9
2018-09-03T07:20:02.026Z,17.03
2018-09-03T07:25:01.412Z,17.14
2018-09-03T07:30:01.682Z,17.16
2018-09-03T07:35:02.020Z,17.25
2018-09-03T07:40:01.619Z,17.31
2018-09-03T07:45:01.866Z,17.37
2018-09-03T07:50:01.159Z,17.32
2018-09-03T07:55:01.421Z,17.24
2018-09-03T08:00:01.716Z,17.25
2018-09-03T08:05:02.153Z,17.41
2018-09-03T08:10:01.573Z,17.51
2018-09-03T08:15:01.818Z,17.6
2018-09-03T08:20:01.174Z,17.81
2018-09-03T08:25:01.692Z,18
2018-09-03T08:30:01.931Z,18
2018-09-03T08:35:01.284Z,18.07
2018-09-03T08:40:01.583Z,18.08
2018-09-03T08:45:01.149Z,17.88
2018-09-03T08:50:01.435Z,17.99
2018-09-03T08:55:01.814Z,18.06
2018-09-03T09:00:02.068Z,18.07
2018-09-03T09:05:01.323Z,18.17
2018-09-03T09:10:01.636Z,18.27
2018-09-03T09:15:01.885Z,18.38
2018-09-03T09:20:01.121Z,18.4
2018-09-03T09:25:01.448Z,18.36
2018-09-03T09:30:01.885Z,18.44
2018-09-03T09:35:01.169Z,18.54
2018-09-03T09:40:01.435Z,18.65
2018-09-03T09:45:01.676Z,18.77
2018-09-03T09:50:01.962Z,18.84
2018-09-03T09:55:01.386Z,19.03
2018-09-03T10:00:01.921Z,19.1
2018-09-03T10:05:01.165Z,19.56
2018-09-03T10:10:01.441Z,19.76
2018-09-03T10:15:01.705Z,19.68
2018-09-03T10:20:02.022Z,19.41
2018-09-03T10:25:01.425Z,19.52
2018-09-03T10:30:01.699Z,19.59
2018-09-03T10:35:01.995Z,19.75
2018-09-03T10:40:01.329Z,20.09
2018-09-03T10:45:01.655Z,20.17
2018-09-03T10:50:02.015Z,19.68
2018-09-03T10:55:01.389Z,19.7
2018-09-03T11:00:01.674Z,19.77
2018-09-03T11:05:02.061Z,19.72
2018-09-03T11:10:01.525Z,19.83
2018-09-03T11:15:01.753Z,19.95
2018-09-03T11:20:02.109Z,19.88
2018-09-03T11:25:01.871Z,19.88
2018-09-03T11:30:01.178Z,19.95
2018-09-03T11:35:01.488Z,20.01
2018-09-03T11:40:01.101Z,20.15
2018-09-03T11:45:01.375Z,20.09
2018-09-03T11:50:01.771Z,20.18
2018-09-03T11:55:01.141Z,20.62
2018-09-03T12:00:01.378Z,20.7
2018-09-03T12:05:01.782Z,20.6
2018-09-03T12:10:01.160Z,20.76
2018-09-03T12:15:01.406Z,20.7
2018-09-03T12:20:01.750Z,20.77
2018-09-03T12:25:01.144Z,20.39
2018-09-03T12:30:01.370Z,20.39
2018-09-03T12:35:01.763Z,20.44
2018-09-03T12:40:01.120Z,20.54
2018-09-03T12:45:01.386Z,20.5
2018-09-03T12:50:01.800Z,20.35
2018-09-03T12:55:01.294Z,20.42
2018-09-03T13:00:05.148Z,20.46
2018-09-03T13:05:02.066Z,20.51
2018-09-03T13:10:01.566Z,20.6
2018-09-03T13:15:01.818Z,20.64
2018-09-03T13:20:01.181Z,20.49
2018-09-03T13:25:01.835Z,20.45
2018-09-03T13:30:01.163Z,20.64
2018-09-03T13:35:01.485Z,20.73
2018-09-03T13:40:01.890Z,20.46
2018-09-03T13:45:01.128Z,20.57
2018-09-03T13:50:01.424Z,20.44
2018-09-03T13:55:01.882Z,20.4
2018-09-03T14:00:01.606Z,20.46
2018-09-03T14:05:01.993Z,20.5
2018-09-03T14:10:01.398Z,20.45
2018-09-03T14:15:01.864Z,20.41
2018-09-03T14:20:01.177Z,20.42
2018-09-03T14:25:01.121Z,20.34
2018-09-03T14:30:01.409Z,20.33
2018-09-03T14:35:01.939Z,20.33
2018-09-03T14:40:01.364Z,20.24
2018-09-03T14:45:01.633Z,20.25
2018-09-03T14:50:01.946Z,20.28
2018-09-03T14:55:01.396Z,20.28
2018-09-03T15:00:01.640Z,20.27
2018-09-03T15:05:01.975Z,20.27
2018-09-03T15:10:01.399Z,20.3
2018-09-03T15:15:01.775Z,20.22
2018-09-03T15:20:01.474Z,20.19
2018-09-03T15:25:01.124Z,20.17
2018-09-03T15:30:01.469Z,20.19
2018-09-03T15:35:01.832Z,20.18
2018-09-03T15:40:01.233Z,20.18
2018-09-03T15:45:01.458Z,20.16
2018-09-03T15:50:01.877Z,20.1
2018-09-03T15:55:01.199Z,20.1
2018-09-03T16:00:01.435Z,20.07
2018-09-03T16:05:01.828Z,20.04
2018-09-03T16:10:01.235Z,19.99
2018-09-03T16:15:01.481Z,19.95
2018-09-03T16:20:01.752Z,19.89
2018-09-03T16:25:01.999Z,19.82
2018-09-03T16:30:01.378Z,19.86
2018-09-03T16:35:01.733Z,19.88
2018-09-03T16:40:01.197Z,19.82
2018-09-03T16:45:01.661Z,19.47
2018-09-03T16:50:01.959Z,19.46
2018-09-03T16:55:01.355Z,19.3
2018-09-03T17:00:01.635Z,19.16
2018-09-03T17:05:02.009Z,19.02
2018-09-03T17:10:01.412Z,18.92
2018-09-03T17:15:01.668Z,18.87
2018-09-03T17:20:02.019Z,18.8
2018-09-03T17:25:01.429Z,18.73
2018-09-03T17:30:01.707Z,18.7
2018-09-03T17:35:02.055Z,18.64
2018-09-03T17:40:01.493Z,18.58
2018-09-03T17:45:01.717Z,18.56
2018-09-03T17:50:02.023Z,18.55
2018-09-03T17:55:01.416Z,18.5
2018-09-03T18:00:01.768Z,18.48
2018-09-03T18:05:02.097Z,18.46
2018-09-03T18:10:01.520Z,18.41
2018-09-03T18:15:01.773Z,18.41
2018-09-03T18:20:02.173Z,18.39
2018-09-03T18:25:01.565Z,18.38
2018-09-03T18:30:01.929Z,18.41
2018-09-03T18:35:01.273Z,18.42
2018-09-03T18:40:01.573Z,18.44
2018-09-03T18:45:01.798Z,18.49
2018-09-03T18:50:02.098Z,18.49
2018-09-03T18:55:01.517Z,18.44
2018-09-03T19:00:01.967Z,18.42
2018-09-03T19:05:01.587Z,18.36
2018-09-03T19:10:01.934Z,18.33
2018-09-03T19:15:01.192Z,18.26
2018-09-03T19:20:01.507Z,18.21
2018-09-03T19:25:01.963Z,18.13
2018-09-03T19:30:01.293Z,18
2018-09-03T19:35:01.742Z,17.92
2018-09-03T19:40:01.135Z,17.82
2018-09-03T19:45:01.420Z,17.75
2018-09-03T19:50:01.732Z,17.68
2018-09-03T19:55:02.031Z,17.64
2018-09-03T20:00:01.285Z,17.56
2018-09-03T20:05:01.657Z,17.53
2018-09-03T20:10:02.068Z,17.5
2018-09-03T20:15:01.726Z,17.51
2018-09-03T20:20:02.036Z,17.49
2018-09-03T20:25:01.425Z,17.45
2018-09-03T20:30:01.792Z,17.4
2018-09-03T20:35:02.178Z,17.37
2018-09-03T20:40:01.584Z,17.34
2018-09-03T20:45:01.802Z,17.35
2018-09-03T20:50:02.136Z,17.32
2018-09-03T20:55:01.619Z,17.31
2018-09-03T21:00:01.905Z,17.26
2018-09-03T21:05:01.201Z,17.25
2018-09-03T21:10:01.508Z,17.23
2018-09-03T21:15:01.774Z,17.22
2018-09-03T21:20:02.149Z,17.18
2018-09-03T21:25:01.655Z,17.16
2018-09-03T21:30:01.946Z,17.16
2018-09-03T21:35:01.237Z,17.13
2018-09-03T21:40:01.531Z,17.14
2018-09-03T21:45:01.798Z,17.13
2018-09-03T21:50:02.192Z,17.11
2018-09-03T21:55:01.584Z,17.08
2018-09-03T22:00:01.879Z,17.04
2018-09-03T22:05:01.192Z,17.04
2018-09-03T22:10:01.510Z,17.07
2018-09-03T22:15:01.745Z,17.04
2018-09-03T22:20:02.101Z,17.04
2018-09-03T22:25:01.578Z,17.01
2018-09-03T22:30:01.854Z,17.05
2018-09-03T22:35:01.124Z,17.02
2018-09-03T22:40:01.376Z,17
2018-09-03T22:45:01.642Z,17.04
2018-09-03T22:50:01.995Z,17.02
2018-09-03T22:55:01.433Z,17.01
2018-09-03T23:00:01.766Z,16.99
2018-09-03T23:05:01.102Z,16.94
2018-09-03T23:10:01.459Z,16.92
2018-09-03T23:15:01.706Z,16.88
2018-09-03T23:20:02.028Z,16.86
2018-09-03T23:25:01.397Z,16.8
2018-09-03T23:30:01.699Z,16.74
2018-09-03T23:35:02.030Z,16.66
2018-09-03T23:40:01.430Z,16.65
2018-09-03T23:45:01.690Z,16.61
2018-09-03T23:50:02.031Z,16.6
2018-09-03T23:55:01.408Z,16.56
